Time;durP1;ratioP1;P1;durP2;ratioP2;P2;SDS_P1;SDS_P2;PMS_P1;PMS_P2;Temp;Humidity;BMP_temperature;BMP_pressure;BME280_temperature;BME280_humidity;BME280_pressure;Samples;Min_cycle;Max_cycle;Signal;HPM_P1;HPM_P2
2021/12/18 00:02:03;;;;;;;50.23;8.77;;;7.40;99.90;;;;;;4923956;28;20801;-85
2021/12/18 00:04:29;;;;;;;44.93;10.13;;;7.40;99.90;;;;;;4904798;28;20047;-85
2021/12/18 00:06:55;;;;;;;31.63;7.63;;;7.40;99.90;;;;;;4905712;29;20031;-86
2021/12/18 00:09:21;;;;;;;42.17;10.23;;;7.40;99.90;;;;;;4921581;29;20068;-85
2021/12/18 00:11:48;;;;;;;38.33;9.60;;;7.40;99.90;;;;;;4920446;28;20458;-85
2021/12/18 00:14:15;;;;;;;25.00;7.10;;;7.30;99.90;;;;;;4932115;29;20514;-85
2021/12/18 00:16:41;;;;;;;58.27;10.57;;;7.40;99.90;;;;;;4954249;28;20494;-85
2021/12/18 00:19:06;;;;;;;77.53;10.97;;;7.40;99.90;;;;;;4937698;28;20159;-86
2021/12/18 00:21:36;;;;;;;34.70;7.07;;;7.40;99.90;;;;;;4920372;29;20475;-85
2021/12/18 00:24:04;;;;;;;17.87;6.97;;;7.20;99.90;;;;;;4953847;28;20051;-85
2021/12/18 00:26:30;;;;;;;26.37;6.13;;;7.20;99.90;;;;;;4936243;28;20426;-85
2021/12/18 00:28:56;;;;;;;81.10;8.70;;;7.20;99.90;;;;;;4900910;29;20035;-85
2021/12/18 00:31:22;;;;;;;71.33;7.43;;;7.10;99.90;;;;;;4937376;29;20046;-85
2021/12/18 00:33:48;;;;;;;56.17;8.03;;;7.00;99.90;;;;;;4920463;29;20047;-85
2021/12/18 00:36:14;;;;;;;62.03;7.30;;;7.00;99.90;;;;;;4918902;28;20047;-86
2021/12/18 00:38:41;;;;;;;24.53;4.47;;;7.00;99.90;;;;;;4918843;28;20130;-86
2021/12/18 00:43:37;;;;;;;50.67;5.97;;;7.00;99.90;;;;;;4925321;28;20086;-86
2021/12/18 00:46:04;;;;;;;34.27;4.47;;;6.90;99.90;;;;;;4909151;29;20589;-86
2021/12/18 00:48:31;;;;;;;33.13;5.17;;;6.90;99.90;;;;;;4941416;28;20050;-86
2021/12/18 00:50:57;;;;;;;42.93;5.57;;;6.80;99.90;;;;;;4912866;28;20174;-86
2021/12/18 00:53:23;;;;;;;36.83;5.73;;;6.80;99.90;;;;;;4922464;29;20047;-86
2021/12/18 00:55:51;;;;;;;31.87;5.73;;;6.80;99.90;;;;;;4924296;29;20050;-86
2021/12/18 00:58:17;;;;;;;37.70;5.13;;;6.70;99.90;;;;;;4921317;28;20501;-86
2021/12/18 01:00:44;;;;;;;18.80;4.07;;;6.80;99.90;;;;;;4950818;29;20039;-86
2021/12/18 01:03:18;;;;;;;36.53;4.70;;;6.80;99.90;;;;;;4923825;29;20419;-86
2021/12/18 01:05:45;;;;;;;30.97;4.67;;;6.80;99.90;;;;;;4920760;28;20056;-85
2021/12/18 01:08:11;;;;;;;12.83;3.37;;;6.80;99.90;;;;;;4923671;29;20136;-86
2021/12/18 01:11:10;;;;;;;26.20;4.40;;;6.70;99.90;;;;;;4921287;28;20123;-86
2021/12/18 01:13:31;;;;;;;31.83;5.20;;;6.80;99.90;;;;;;4922327;29;20499;-86
2021/12/18 01:16:06;;;;;;;42.73;5.20;;;6.80;99.90;;;;;;4934020;29;20043;-86
2021/12/18 01:24:00;;;;;;;19.00;4.13;;;6.80;99.90;;;;;;4951226;28;20090;-83
2021/12/18 01:26:25;;;;;;;7.23;2.73;;;6.80;99.90;;;;;;4926829;29;20120;-84
2021/12/18 01:28:51;;;;;;;19.13;3.60;;;6.80;99.90;;;;;;4909241;28;20189;-86
2021/12/18 01:31:17;;;;;;;28.70;4.70;;;6.80;99.90;;;;;;4925479;28;20035;-86
2021/12/18 01:33:42;;;;;;;6.07;2.73;;;6.80;99.90;;;;;;4921114;29;20394;-85
2021/12/18 01:36:08;;;;;;;7.63;2.90;;;6.80;99.90;;;;;;4937438;29;20189;-85
2021/12/18 01:38:34;;;;;;;8.37;3.50;;;6.80;99.90;;;;;;4938478;28;20039;-86
2021/12/18 01:41:01;;;;;;;6.07;2.70;;;6.90;99.90;;;;;;4919303;29;20058;-86
2021/12/18 01:46:37;;;;;;;14.80;3.27;;;6.90;99.90;;;;;;4923548;29;20535;-86
2021/12/18 01:54:25;;;;;;;3.93;1.90;;;6.90;99.90;;;;;;4913226;29;20106;-85
2021/12/18 01:56:50;;;;;;;6.30;2.03;;;6.80;99.90;;;;;;4918001;29;20039;-86
2021/12/18 01:59:16;;;;;;;12.53;2.07;;;6.80;99.90;;;;;;4922014;28;20487;-86
2021/12/18 02:01:42;;;;;;;12.43;2.00;;;6.80;99.90;;;;;;4922911;28;20521;-86
2021/12/18 02:04:08;;;;;;;11.13;2.00;;;6.70;99.90;;;;;;4921949;29;20043;-86
2021/12/18 02:06:33;;;;;;;20.57;2.53;;;6.70;99.90;;;;;;4924287;28;20103;-86
2021/12/18 02:08:59;;;;;;;21.07;2.97;;;6.70;99.90;;;;;;4915990;29;20103;-81
2021/12/18 02:11:33;;;;;;;10.20;2.23;;;6.70;99.90;;;;;;4905212;28;20039;-81
2021/12/18 02:21:59;;;;;;;12.53;2.33;;;6.70;99.90;;;;;;4931557;29;20051;-81
2021/12/18 02:24:28;;;;;;;9.50;2.30;;;6.70;99.90;;;;;;4936969;29;20079;-81
2021/12/18 02:26:54;;;;;;;10.03;2.30;;;6.70;99.90;;;;;;4921795;29;20039;-81
2021/12/18 02:29:20;;;;;;;8.17;1.90;;;6.70;99.90;;;;;;4908501;28;20032;-80
2021/12/18 02:31:46;;;;;;;5.73;2.17;;;6.70;99.90;;;;;;4906546;29;20136;-80
2021/12/18 02:34:19;;;;;;;5.90;1.80;;;6.70;99.90;;;;;;4924313;28;20042;-81
2021/12/18 02:36:48;;;;;;;7.20;1.90;;;6.70;99.90;;;;;;4922545;29;20069;-81
2021/12/18 02:44:41;;;;;;;6.13;1.90;;;6.70;99.90;;;;;;4936835;29;20039;-80
2021/12/18 02:47:08;;;;;;;10.17;2.07;;;6.60;99.90;;;;;;4905945;28;20046;-81
2021/12/18 02:49:34;;;;;;;4.67;1.87;;;6.60;99.90;;;;;;4926130;29;20402;-81
2021/12/18 02:52:01;;;;;;;5.97;1.60;;;6.60;99.90;;;;;;4938037;28;20043;-81
2021/12/18 02:54:26;;;;;;;7.80;2.07;;;6.60;99.90;;;;;;4934044;29;20039;-81
2021/12/18 02:56:52;;;;;;;4.27;1.63;;;6.60;99.90;;;;;;4905869;28;20041;-81
2021/12/18 02:59:19;;;;;;;6.87;1.67;;;6.70;99.90;;;;;;4937723;29;20134;-81
2021/12/18 03:01:45;;;;;;;6.27;1.90;;;6.70;99.90;;;;;;4920725;28;20090;-81
2021/12/18 03:04:18;;;;;;;7.57;1.63;;;6.60;99.90;;;;;;4934273;29;20039;-81
2021/12/18 03:06:49;;;;;;;3.57;1.90;;;6.60;99.90;;;;;;4918604;28;20053;-81
2021/12/18 03:25:28;;;;;;;7.90;2.00;;;6.40;99.90;;;;;;4953430;28;20057;-81
2021/12/18 03:27:54;;;;;;;4.93;2.10;;;6.40;99.90;;;;;;4924463;29;20574;-81
2021/12/18 03:30:21;;;;;;;6.73;2.03;;;6.50;99.90;;;;;;4935966;29;20050;-81
2021/12/18 03:32:47;;;;;;;4.90;2.00;;;6.40;99.90;;;;;;4904244;28;20395;-81
2021/12/18 03:35:15;;;;;;;4.77;1.87;;;6.40;99.90;;;;;;4953914;28;20042;-82
2021/12/18 03:37:41;;;;;;;7.17;2.07;;;6.40;99.90;;;;;;4954438;28;20043;-81
2021/12/18 03:40:11;;;;;;;9.53;2.10;;;6.40;99.90;;;;;;4954511;28;20051;-80
2021/12/18 03:42:37;;;;;;;8.00;2.27;;;6.40;99.90;;;;;;4937098;28;20103;-81
2021/12/18 03:45:05;;;;;;;7.67;2.10;;;6.30;99.90;;;;;;4920160;29;20051;-80
2021/12/18 03:47:31;;;;;;;9.13;2.70;;;6.40;99.90;;;;;;4904760;28;20138;-80
2021/12/18 03:49:56;;;;;;;8.93;2.90;;;6.40;99.90;;;;;;4953176;28;20139;-81
2021/12/18 03:52:23;;;;;;;7.10;1.93;;;6.40;99.90;;;;;;4938291;28;20054;-81
2021/12/18 03:54:48;;;;;;;8.77;2.47;;;6.40;99.90;;;;;;4936704;29;20138;-82
2021/12/18 03:57:14;;;;;;;9.37;2.60;;;6.40;99.90;;;;;;4933657;29;20130;-80
2021/12/18 03:59:40;;;;;;;5.27;2.27;;;6.50;99.90;;;;;;4932957;29;20401;-81
2021/12/18 04:02:06;;;;;;;8.77;2.50;;;6.50;99.90;;;;;;4935887;29;20043;-80
2021/12/18 04:04:31;;;;;;;12.40;2.67;;;6.40;99.90;;;;;;4935324;28;20043;-80
2021/12/18 04:06:58;;;;;;;7.23;2.40;;;6.40;99.90;;;;;;4920485;29;20082;-83
2021/12/18 04:09:24;;;;;;;7.20;2.23;;;6.40;99.90;;;;;;4935286;29;20035;-81
2021/12/18 04:11:50;;;;;;;5.97;2.30;;;6.40;99.90;;;;;;4902376;28;20500;-81
2021/12/18 04:14:17;;;;;;;7.90;2.30;;;6.40;99.90;;;;;;4916140;29;20039;-81
2021/12/18 04:16:44;;;;;;;7.63;2.50;;;6.40;99.90;;;;;;4919228;29;20165;-81
2021/12/18 04:19:10;;;;;;;6.93;2.50;;;6.40;99.90;;;;;;4915800;28;20126;-81
2021/12/18 04:21:36;;;;;;;7.87;2.40;;;6.40;99.90;;;;;;4916308;29;20196;-80
2021/12/18 04:24:03;;;;;;;8.07;2.33;;;6.40;99.90;;;;;;4936397;29;20039;-81
2021/12/18 04:26:34;;;;;;;7.57;2.23;;;6.40;99.90;;;;;;4919336;28;20168;-81
2021/12/18 04:29:01;;;;;;;4.80;2.10;;;6.40;99.90;;;;;;4913497;29;20039;-81
2021/12/18 04:31:28;;;;;;;10.63;3.10;;;6.40;99.90;;;;;;4937330;29;20074;-80
2021/12/18 04:33:54;;;;;;;8.87;2.73;;;6.40;99.90;;;;;;4935043;28;20047;-81
2021/12/18 04:36:20;;;;;;;7.67;2.40;;;6.40;99.90;;;;;;4933577;29;20426;-81
2021/12/18 04:38:46;;;;;;;7.93;2.40;;;6.40;99.90;;;;;;4919126;29;20085;-81
2021/12/18 04:41:14;;;;;;;7.70;2.20;;;6.40;99.90;;;;;;4919968;28;20072;-80
2021/12/18 04:43:39;;;;;;;8.17;2.40;;;6.40;99.90;;;;;;4888097;29;20070;-81
2021/12/18 04:46:05;;;;;;;8.87;2.77;;;6.40;99.90;;;;;;4934642;29;20138;-81
2021/12/18 04:48:31;;;;;;;4.93;2.10;;;6.40;99.90;;;;;;4920954;29;20407;-80
2021/12/18 04:50:57;;;;;;;5.97;2.10;;;6.40;99.90;;;;;;4934913;28;20039;-80
2021/12/18 04:53:22;;;;;;;5.77;2.07;;;6.40;99.90;;;;;;4936928;29;20043;-80
2021/12/18 04:55:48;;;;;;;4.30;2.03;;;6.40;99.90;;;;;;4935539;29;20051;-80
2021/12/18 04:58:14;;;;;;;6.50;1.83;;;6.50;99.90;;;;;;4931706;29;20043;-81
2021/12/18 05:00:46;;;;;;;10.30;2.20;;;6.50;99.90;;;;;;4932200;28;20043;-81
2021/12/18 05:03:13;;;;;;;9.73;2.20;;;6.50;99.90;;;;;;4922934;28;20091;-81
2021/12/18 05:05:39;;;;;;;7.07;2.20;;;6.50;99.90;;;;;;4919011;28;20628;-81
2021/12/18 05:08:06;;;;;;;7.03;2.03;;;6.50;99.90;;;;;;4933751;29;20119;-81
2021/12/18 05:10:32;;;;;;;6.70;2.00;;;6.50;99.90;;;;;;4920257;29;20039;-81
2021/12/18 05:12:58;;;;;;;5.73;2.20;;;6.60;99.90;;;;;;4901967;28;20074;-81
2021/12/18 05:15:24;;;;;;;5.80;2.00;;;6.60;99.90;;;;;;4936208;28;20057;-81
2021/12/18 05:17:50;;;;;;;12.30;2.40;;;6.60;99.90;;;;;;4933321;28;20412;-80
2021/12/18 05:20:16;;;;;;;8.60;2.30;;;6.60;99.90;;;;;;4902836;29;20039;-81
2021/12/18 05:22:42;;;;;;;5.63;2.20;;;6.60;99.90;;;;;;4916577;29;20585;-81
2021/12/18 05:25:09;;;;;;;8.27;2.00;;;6.60;99.90;;;;;;4934295;28;20082;-81
2021/12/18 05:27:36;;;;;;;10.60;2.43;;;6.60;99.90;;;;;;4936069;29;20387;-81
2021/12/18 05:30:04;;;;;;;11.53;2.40;;;6.60;99.90;;;;;;4934436;28;20410;-81
2021/12/18 05:32:29;;;;;;;9.57;2.10;;;6.60;99.90;;;;;;4920362;28;20058;-81
2021/12/18 05:34:55;;;;;;;6.33;2.37;;;6.60;99.90;;;;;;4913825;29;20052;-81
2021/12/18 05:39:50;;;;;;;4.87;1.80;;;6.70;99.90;;;;;;4923784;29;20066;-81
2021/12/18 05:42:16;;;;;;;5.90;1.97;;;6.70;99.90;;;;;;4906484;29;20479;-81
2021/12/18 05:44:42;;;;;;;7.00;2.13;;;6.70;99.90;;;;;;4924017;28;20047;-81
2021/12/18 05:47:07;;;;;;;6.57;2.50;;;6.80;99.90;;;;;;4907608;29;20039;-81
2021/12/18 05:49:33;;;;;;;6.17;2.13;;;6.80;99.90;;;;;;4922045;29;20077;-80
2021/12/18 05:51:59;;;;;;;4.67;2.00;;;6.80;99.90;;;;;;4937604;28;20074;-80
2021/12/18 05:54:25;;;;;;;9.00;2.67;;;6.80;99.90;;;;;;4890259;29;20074;-81
2021/12/18 05:56:50;;;;;;;7.50;2.17;;;6.80;99.90;;;;;;4939789;28;20118;-81
2021/12/18 05:59:16;;;;;;;4.20;2.00;;;6.80;99.90;;;;;;4953271;28;20527;-81
2021/12/18 06:01:43;;;;;;;4.93;2.03;;;6.80;99.90;;;;;;4939584;29;20039;-81
2021/12/18 06:04:08;;;;;;;6.10;2.43;;;6.70;99.90;;;;;;4923031;29;20070;-81
2021/12/18 06:06:34;;;;;;;6.37;2.00;;;6.80;99.90;;;;;;4921316;29;20075;-81
2021/12/18 06:09:00;;;;;;;5.17;1.97;;;6.80;99.90;;;;;;4906977;29;20050;-81
2021/12/18 06:11:28;;;;;;;4.33;1.63;;;6.80;99.90;;;;;;4906615;28;20372;-81
2021/12/18 06:13:54;;;;;;;4.03;1.77;;;6.90;99.90;;;;;;4918091;28;20054;-80
2021/12/18 06:16:21;;;;;;;5.93;2.10;;;6.90;99.90;;;;;;4923315;28;20046;-81
2021/12/18 06:18:50;;;;;;;6.83;2.13;;;6.80;99.90;;;;;;4918689;29;20391;-80
2021/12/18 06:21:17;;;;;;;5.47;2.00;;;6.90;99.90;;;;;;4922110;28;20696;-80
2021/12/18 06:23:47;;;;;;;5.97;2.03;;;6.90;99.90;;;;;;4941246;28;20046;-80
2021/12/18 06:26:13;;;;;;;6.40;2.23;;;6.90;99.90;;;;;;4955921;28;20071;-80
2021/12/18 06:28:40;;;;;;;6.10;2.40;;;6.90;99.90;;;;;;4938601;28;20406;-80
2021/12/18 06:31:06;;;;;;;5.77;1.73;;;7.00;99.90;;;;;;4921269;29;20045;-80
2021/12/18 06:33:32;;;;;;;8.33;2.57;;;7.00;99.90;;;;;;4938821;28;20047;-80
2021/12/18 06:35:58;;;;;;;6.00;2.10;;;6.90;99.90;;;;;;4906412;29;20063;-80
2021/12/18 06:38:24;;;;;;;5.13;1.93;;;7.00;99.90;;;;;;4922617;29;20057;-80
2021/12/18 06:40:49;;;;;;;6.23;2.33;;;6.90;99.90;;;;;;4938382;28;20051;-81
2021/12/18 06:43:15;;;;;;;5.63;2.00;;;7.00;99.90;;;;;;4935102;29;20071;-80
2021/12/18 06:45:41;;;;;;;6.33;2.30;;;7.00;99.90;;;;;;4938117;29;20075;-80
2021/12/18 06:48:08;;;;;;;9.77;3.10;;;7.00;99.90;;;;;;4939696;29;20043;-80
2021/12/18 06:50:35;;;;;;;7.17;2.37;;;7.00;99.90;;;;;;4938471;29;20035;-81
2021/12/18 06:53:01;;;;;;;6.67;2.70;;;7.00;99.90;;;;;;4930506;28;20504;-80
2021/12/18 06:55:27;;;;;;;7.40;2.50;;;7.00;99.90;;;;;;4937648;28;20122;-81
2021/12/18 06:57:53;;;;;;;7.80;2.63;;;7.00;99.90;;;;;;4937141;28;20039;-80
2021/12/18 07:00:20;;;;;;;7.40;2.77;;;7.00;99.90;;;;;;4938245;28;20550;-80
2021/12/18 07:02:47;;;;;;;8.90;2.77;;;7.00;99.90;;;;;;4953091;28;20047;-81
2021/12/18 07:05:13;;;;;;;6.83;2.67;;;7.00;99.90;;;;;;4937548;29;20048;-80
2021/12/18 07:07:39;;;;;;;5.60;2.80;;;7.00;99.90;;;;;;4921340;29;20039;-81
2021/12/18 07:10:07;;;;;;;7.10;2.93;;;7.00;99.90;;;;;;4936977;29;20039;-80
2021/12/18 07:12:32;;;;;;;8.33;2.87;;;7.10;99.90;;;;;;4918796;28;20038;-80
2021/12/18 07:14:58;;;;;;;9.70;3.67;;;7.10;99.90;;;;;;4923359;29;20043;-81
2021/12/18 07:17:24;;;;;;;8.47;3.10;;;7.10;99.90;;;;;;4920114;28;20047;-81
2021/12/18 07:19:49;;;;;;;10.00;3.33;;;7.10;99.90;;;;;;4923719;29;20616;-81
2021/12/18 07:22:15;;;;;;;9.03;3.50;;;7.10;99.90;;;;;;4933949;29;20043;-81
2021/12/18 07:24:41;;;;;;;8.27;3.40;;;7.10;99.90;;;;;;4918402;29;20399;-81
2021/12/18 07:27:07;;;;;;;7.77;3.10;;;7.10;99.90;;;;;;4903499;28;20138;-81
2021/12/18 07:29:33;;;;;;;8.20;3.40;;;7.10;99.90;;;;;;4901987;29;20085;-81
2021/12/18 07:31:59;;;;;;;8.53;3.63;;;7.10;99.90;;;;;;4928385;28;20043;-81
2021/12/18 07:34:24;;;;;;;11.10;3.87;;;7.20;99.90;;;;;;4957498;28;20050;-81
2021/12/18 07:36:51;;;;;;;10.73;4.27;;;7.20;99.90;;;;;;4941834;28;20141;-81
2021/12/18 07:39:17;;;;;;;9.77;3.60;;;7.20;99.90;;;;;;4941726;28;20513;-81
2021/12/18 07:41:43;;;;;;;8.57;3.33;;;7.20;99.90;;;;;;4925489;28;20719;-81
2021/12/18 07:44:09;;;;;;;9.17;3.60;;;7.20;99.90;;;;;;4922818;29;20074;-81
2021/12/18 07:46:36;;;;;;;8.67;3.53;;;7.30;99.90;;;;;;4938411;28;20047;-82
2021/12/18 07:49:03;;;;;;;12.57;4.30;;;7.30;99.90;;;;;;4955490;28;20065;-82
2021/12/18 07:51:29;;;;;;;12.17;4.30;;;7.30;99.90;;;;;;4943145;29;20043;-82
2021/12/18 07:53:55;;;;;;;10.20;4.70;;;7.30;99.90;;;;;;4921960;29;20042;-82
2021/12/18 07:56:21;;;;;;;11.70;4.40;;;7.30;99.90;;;;;;4923732;29;20051;-82
2021/12/18 07:58:47;;;;;;;15.57;4.87;;;7.40;99.90;;;;;;4947499;29;20122;-81
2021/12/18 08:01:13;;;;;;;12.93;5.20;;;7.30;99.90;;;;;;4938398;28;20051;-82
2021/12/18 08:03:40;;;;;;;13.20;5.67;;;7.40;99.90;;;;;;4938228;29;20236;-82
2021/12/18 08:06:06;;;;;;;17.73;6.07;;;7.40;99.90;;;;;;4903273;29;20090;-82
2021/12/18 08:08:32;;;;;;;16.00;5.93;;;7.40;99.90;;;;;;4922203;28;20075;-82
2021/12/18 08:10:58;;;;;;;13.20;4.80;;;7.40;99.90;;;;;;4921773;29;20051;-82
2021/12/18 08:13:23;;;;;;;13.97;5.90;;;7.50;99.90;;;;;;4921829;29;20054;-82
2021/12/18 08:15:49;;;;;;;15.33;5.57;;;7.50;99.90;;;;;;4906750;29;20078;-81
2021/12/18 08:18:15;;;;;;;15.33;5.60;;;7.50;99.90;;;;;;4907068;29;20407;-81
2021/12/18 08:20:41;;;;;;;17.50;6.17;;;7.50;99.90;;;;;;4937824;28;20051;-81
2021/12/18 08:23:07;;;;;;;17.77;6.17;;;7.50;99.90;;;;;;4934726;29;20050;-81
2021/12/18 08:25:34;;;;;;;14.47;6.13;;;7.50;99.90;;;;;;4906217;29;20051;-81
2021/12/18 08:28:01;;;;;;;12.87;5.07;;;7.60;99.90;;;;;;4906318;29;20047;-82
2021/12/18 08:30:28;;;;;;;19.27;6.20;;;7.60;99.90;;;;;;4940925;28;20134;-82
2021/12/18 08:32:54;;;;;;;14.73;5.93;;;7.60;99.90;;;;;;4939209;28;20047;-81
2021/12/18 08:35:20;;;;;;;15.83;5.73;;;7.60;99.90;;;;;;4937692;29;20054;-82
2021/12/18 08:37:46;;;;;;;14.57;5.60;;;7.60;99.90;;;;;;4942628;28;20114;-81
2021/12/18 08:40:12;;;;;;;12.70;5.40;;;7.70;99.90;;;;;;4922205;29;20091;-81
2021/12/18 08:42:39;;;;;;;13.07;5.47;;;7.70;99.90;;;;;;4906010;28;20047;-82
2021/12/18 08:45:06;;;;;;;12.83;4.97;;;7.70;99.90;;;;;;4921964;28;20047;-81
2021/12/18 08:47:31;;;;;;;16.00;6.00;;;7.70;99.90;;;;;;4925264;28;20043;-81
2021/12/18 08:50:00;;;;;;;15.93;5.50;;;7.80;99.90;;;;;;4974251;28;20047;-81
2021/12/18 08:52:26;;;;;;;14.77;5.60;;;7.80;99.90;;;;;;4943088;29;20394;-81
2021/12/18 08:54:52;;;;;;;14.37;5.70;;;7.80;99.90;;;;;;4937892;29;20058;-81
2021/12/18 08:57:18;;;;;;;13.53;5.93;;;7.80;99.90;;;;;;4906136;29;20043;-81
2021/12/18 08:59:44;;;;;;;14.67;5.50;;;7.80;99.90;;;;;;4921599;29;20994;-82
2021/12/18 09:02:11;;;;;;;12.03;5.20;;;7.80;99.90;;;;;;4941692;29;20066;-82
2021/12/18 09:04:38;;;;;;;16.43;5.40;;;7.90;99.90;;;;;;4933228;28;20070;-82
2021/12/18 09:07:04;;;;;;;10.00;4.67;;;7.90;99.90;;;;;;4925447;29;20479;-84
2021/12/18 09:09:30;;;;;;;13.23;4.83;;;7.90;99.90;;;;;;4941313;29;20066;-82
2021/12/18 09:11:56;;;;;;;9.73;4.27;;;7.90;99.90;;;;;;4925314;29;20479;-82
2021/12/18 09:14:21;;;;;;;9.40;3.90;;;8.00;99.90;;;;;;4909854;28;20058;-82
2021/12/18 09:16:47;;;;;;;10.70;3.60;;;8.10;99.90;;;;;;4925253;29;20047;-83
2021/12/18 09:19:13;;;;;;;10.07;3.53;;;8.10;99.90;;;;;;4958249;29;20066;-82
2021/12/18 09:21:39;;;;;;;11.57;3.70;;;8.00;99.90;;;;;;4940973;29;20153;-83
2021/12/18 09:24:05;;;;;;;13.07;3.47;;;8.10;99.90;;;;;;4941119;29;20047;-83
2021/12/18 09:26:31;;;;;;;7.03;3.10;;;8.20;99.90;;;;;;4941023;29;20066;-82
2021/12/18 09:28:57;;;;;;;13.87;3.40;;;8.10;99.90;;;;;;4924867;29;20506;-82
2021/12/18 09:31:25;;;;;;;9.20;3.80;;;8.10;99.90;;;;;;4924854;29;20474;-82
2021/12/18 09:33:51;;;;;;;9.13;4.20;;;8.10;99.90;;;;;;4924724;29;20395;-82
2021/12/18 09:36:16;;;;;;;11.03;3.83;;;8.20;99.90;;;;;;4957999;28;20051;-81
2021/12/18 09:38:42;;;;;;;12.63;3.97;;;8.20;99.90;;;;;;4924839;29;20041;-81
2021/12/18 09:41:08;;;;;;;13.40;4.17;;;8.20;99.90;;;;;;4926335;28;20075;-82
2021/12/18 09:43:35;;;;;;;11.07;3.70;;;8.20;99.90;;;;;;4950070;29;20129;-82
2021/12/18 09:46:13;;;;;;;8.23;2.97;;;8.20;99.90;;;;;;4941517;29;20567;-82
2021/12/18 09:48:41;;;;;;;12.03;3.67;;;8.20;99.90;;;;;;4924544;29;20043;-82
2021/12/18 09:51:13;;;;;;;7.93;2.97;;;8.20;99.90;;;;;;4951513;28;20035;-83
2021/12/18 09:53:40;;;;;;;11.23;3.47;;;8.30;99.90;;;;;;4959674;28;20748;-82
2021/12/18 09:56:06;;;;;;;8.53;3.40;;;8.20;99.90;;;;;;4923596;29;20047;-82
2021/12/18 09:58:33;;;;;;;8.47;3.47;;;8.20;99.90;;;;;;4938123;29;20035;-82
2021/12/18 10:00:58;;;;;;;11.43;3.53;;;8.20;99.90;;;;;;4919874;29;20490;-83
2021/12/18 10:03:57;;;;;;;8.97;2.83;;;8.20;99.90;;;;;;4908237;29;20046;-82
2021/12/18 10:06:40;;;;;;;11.07;3.00;;;8.30;99.90;;;;;;4939818;29;20047;-82
2021/12/18 10:09:10;;;;;;;11.83;2.87;;;8.30;99.90;;;;;;4938692;29;20035;-82
2021/12/18 10:11:52;;;;;;;9.47;2.73;;;8.30;99.90;;;;;;4939929;29;20035;-82
2021/12/18 10:14:20;;;;;;;8.40;3.30;;;8.30;99.90;;;;;;4948449;28;20395;-84
2021/12/18 10:16:49;;;;;;;9.87;2.67;;;8.30;99.90;;;;;;4946544;29;20520;-83
2021/12/18 10:19:24;;;;;;;8.80;2.70;;;8.30;99.90;;;;;;4939990;29;20051;-82
2021/12/18 10:21:59;;;;;;;10.07;2.80;;;8.40;99.90;;;;;;4947638;28;20043;-83
2021/12/18 10:24:26;;;;;;;9.13;2.77;;;8.40;99.90;;;;;;4923883;28;20086;-82
2021/12/18 10:26:52;;;;;;;7.23;3.60;;;8.40;99.90;;;;;;4923652;28;20042;-83
2021/12/18 10:29:26;;;;;;;10.00;3.17;;;8.40;99.90;;;;;;4923923;29;20050;-83
2021/12/18 10:31:52;;;;;;;8.63;3.10;;;8.40;99.90;;;;;;4923848;28;20089;-83
2021/12/18 10:34:19;;;;;;;13.63;3.73;;;8.40;99.90;;;;;;4939444;28;20118;-83
2021/12/18 10:37:14;;;;;;;9.07;3.10;;;8.50;99.90;;;;;;4956431;28;20047;-84
2021/12/18 10:39:53;;;;;;;18.10;3.60;;;8.50;99.90;;;;;;4923149;29;20035;-83
2021/12/18 10:42:40;;;;;;;11.93;3.03;;;8.50;99.90;;;;;;4956171;28;20414;-84
2021/12/18 10:45:25;;;;;;;8.20;3.10;;;8.50;99.90;;;;;;4942517;29;20070;-83
2021/12/18 10:48:08;;;;;;;10.80;3.03;;;8.50;99.90;;;;;;4924126;29;20047;-84
2021/12/18 10:50:39;;;;;;;9.43;3.60;;;8.50;99.90;;;;;;4923311;29;20043;-84
2021/12/18 10:53:21;;;;;;;11.93;3.13;;;8.50;99.90;;;;;;4939177;28;20055;-83
2021/12/18 10:55:50;;;;;;;11.70;3.58;;;8.50;99.90;;;;;;4939131;29;20043;-83
2021/12/18 10:58:24;;;;;;;10.43;3.33;;;8.50;99.90;;;;;;4920104;29;20054;-82
2021/12/18 11:00:54;;;;;;;8.60;3.23;;;8.50;99.90;;;;;;4904593;29;20483;-83
2021/12/18 11:03:26;;;;;;;14.93;3.87;;;8.50;99.90;;;;;;4923933;29;20035;-83
2021/12/18 11:06:13;;;;;;;10.85;4.18;;;8.60;99.90;;;;;;4938979;29;20195;-83
2021/12/18 11:09:25;;;;;;;8.33;3.80;;;8.50;99.90;;;;;;4939102;29;20049;-83
2021/12/18 11:14:39;;;;;;;15.77;4.70;;;8.50;99.90;;;;;;4961346;28;20534;-83
2021/12/18 11:17:10;;;;;;;9.80;4.00;;;8.60;99.90;;;;;;4952537;29;20039;-83
2021/12/18 11:19:36;;;;;;;9.03;3.77;;;8.60;99.90;;;;;;4955917;29;20051;-83
2021/12/18 11:22:16;;;;;;;12.30;4.77;;;8.60;99.90;;;;;;4938611;29;20047;-83
2021/12/18 11:24:50;;;;;;;10.80;4.03;;;8.60;99.90;;;;;;4938305;29;20138;-83
2021/12/18 11:27:19;;;;;;;11.33;4.50;;;8.60;99.90;;;;;;4919584;29;20941;-84
2021/12/18 11:29:51;;;;;;;12.73;3.77;;;8.70;99.90;;;;;;4922475;29;20038;-84
2021/12/18 11:32:40;;;;;;;;;;;8.70;99.90;;;;;;4923344;29;20511;-85
2021/12/18 11:35:19;;;;;;;8.77;3.90;;;8.60;99.90;;;;;;4943527;28;19930;-83
2021/12/18 11:37:46;;;;;;;11.67;4.27;;;8.70;99.90;;;;;;4922847;29;20506;-84
2021/12/18 11:40:17;;;;;;;9.37;3.57;;;8.70;99.90;;;;;;4938165;29;20047;-84
2021/12/18 11:42:43;;;;;;;9.35;4.40;;;8.70;99.90;;;;;;4903362;29;20127;-84
2021/12/18 11:45:10;;;;;;;8.60;3.90;;;8.60;99.90;;;;;;4916685;28;20150;-83
2021/12/18 11:47:45;;;;;;;7.43;3.90;;;8.70;99.90;;;;;;4920484;28;20094;-85
2021/12/18 11:50:22;;;;;;;10.20;3.40;;;8.60;99.90;;;;;;4938043;29;20505;-83
2021/12/18 11:53:13;;;;;;;8.57;3.43;;;8.70;99.90;;;;;;4922322;29;20043;-83
2021/12/18 11:55:51;;;;;;;7.27;3.63;;;8.70;99.90;;;;;;4930745;29;20047;-84
2021/12/18 11:58:26;;;;;;;12.00;4.00;;;8.80;99.90;;;;;;4955511;28;20498;-83
2021/12/18 12:00:55;;;;;;;9.47;4.20;;;8.70;99.90;;;;;;4957508;28;20399;-83
2021/12/18 12:03:45;;;;;;;11.60;3.60;;;8.70;99.90;;;;;;4939525;29;20054;-85
2021/12/18 12:06:34;;;;;;;6.90;4.30;;;8.70;99.90;;;;;;4921913;29;20059;-85
2021/12/18 12:09:13;;;;;;;13.40;4.80;;;8.70;99.90;;;;;;4922054;29;20047;-85
2021/12/18 12:11:58;;;;;;;11.87;4.70;;;8.70;99.90;;;;;;4922035;29;20039;-84
2021/12/18 12:14:39;;;;;;;8.67;4.07;;;8.70;99.90;;;;;;4937645;29;20051;-84
2021/12/18 12:17:08;;;;;;;7.63;3.93;;;8.80;99.90;;;;;;4929206;28;20075;-84
2021/12/18 12:19:33;;;;;;;8.80;3.93;;;8.80;99.90;;;;;;4943604;29;20652;-84
2021/12/18 12:22:00;;;;;;;9.20;3.60;;;8.70;99.90;;;;;;4922225;29;20094;-84
2021/12/18 12:24:31;;;;;;;6.73;3.10;;;8.80;99.90;;;;;;4921925;29;20110;-84
2021/12/18 12:27:26;;;;;;;7.33;3.20;;;8.80;99.90;;;;;;4927063;29;20114;-84
2021/12/18 12:29:52;;;;;;;8.77;3.23;;;8.80;99.90;;;;;;4922133;29;20054;-85
2021/12/18 12:32:20;;;;;;;6.27;2.47;;;8.80;99.90;;;;;;4906404;29;20090;-84
2021/12/18 12:35:00;;;;;;;6.37;2.33;;;8.80;99.90;;;;;;4923622;29;20059;-84
2021/12/18 12:37:26;;;;;;;5.50;2.50;;;8.80;99.90;;;;;;4926437;29;20145;-84
2021/12/18 12:40:02;;;;;;;6.60;2.60;;;8.70;99.90;;;;;;4941541;28;20484;-85
2021/12/18 12:42:29;;;;;;;8.37;2.87;;;8.90;99.90;;;;;;4941627;28;20406;-84
2021/12/18 12:45:09;;;;;;;9.77;2.80;;;8.80;99.90;;;;;;4926132;28;20049;-84
2021/12/18 12:47:35;;;;;;;7.37;2.60;;;8.80;99.90;;;;;;4943411;29;20379;-84
2021/12/18 12:50:21;;;;;;;7.33;2.70;;;8.80;99.90;;;;;;4927998;28;20039;-85
2021/12/18 12:52:52;;;;;;;10.97;3.30;;;8.80;99.90;;;;;;4960386;28;20047;-85
2021/12/18 12:55:20;;;;;;;6.95;2.92;;;8.80;99.90;;;;;;4947100;29;20498;-84
2021/12/18 12:57:50;;;;;;;4.53;2.60;;;8.90;99.90;;;;;;4940899;29;20035;-84
2021/12/18 13:00:22;;;;;;;7.63;2.43;;;8.80;99.90;;;;;;4941030;29;20126;-84
2021/12/18 13:02:47;;;;;;;6.05;2.63;;;8.90;99.90;;;;;;4938864;28;20042;-84
2021/12/18 13:05:13;;;;;;;9.53;2.80;;;8.80;99.90;;;;;;4954193;28;20051;-84
2021/12/18 13:07:47;;;;;;;9.27;2.30;;;8.90;99.90;;;;;;4959728;28;20117;-84
2021/12/18 13:10:21;;;;;;;6.03;2.37;;;8.90;99.90;;;;;;4941268;29;20395;-84
2021/12/18 13:12:52;;;;;;;7.23;2.40;;;8.90;99.90;;;;;;4925340;29;20047;-85
2021/12/18 13:15:18;;;;;;;7.90;2.87;;;8.90;99.90;;;;;;4941267;29;20393;-85
2021/12/18 13:17:44;;;;;;;7.43;2.30;;;8.90;99.90;;;;;;4925617;29;20078;-84
2021/12/18 13:20:10;;;;;;;9.37;3.10;;;8.90;99.90;;;;;;4930272;29;20129;-85
2021/12/18 13:22:36;;;;;;;8.87;2.77;;;8.90;99.90;;;;;;4940921;29;20383;-84
2021/12/18 13:25:09;;;;;;;8.70;2.60;;;8.90;99.90;;;;;;4893797;29;20055;-84
2021/12/18 13:27:39;;;;;;;8.13;2.60;;;8.90;99.90;;;;;;4940558;29;20483;-84
2021/12/18 13:30:16;;;;;;;8.70;2.63;;;8.90;99.90;;;;;;4932862;28;20494;-84
2021/12/18 13:32:53;;;;;;;10.80;2.80;;;8.90;99.90;;;;;;4966211;28;20054;-84
2021/12/18 13:35:21;;;;;;;5.77;2.33;;;8.90;99.90;;;;;;4908974;28;20051;-84
2021/12/18 13:38:01;;;;;;;10.43;2.47;;;8.90;99.90;;;;;;4940296;29;20499;-84
2021/12/18 13:40:29;;;;;;;10.80;2.97;;;8.90;99.90;;;;;;4934411;28;20043;-84
2021/12/18 13:43:06;;;;;;;8.40;2.60;;;8.90;99.90;;;;;;4940055;29;20040;-84
2021/12/18 13:45:46;;;;;;;9.53;2.70;;;8.90;99.90;;;;;;4940050;29;20186;-84
2021/12/18 13:48:12;;;;;;;6.80;3.07;;;8.90;99.90;;;;;;4924425;29;20035;-84
2021/12/18 13:50:38;;;;;;;6.87;2.73;;;8.90;99.90;;;;;;4937199;28;20045;-84
2021/12/18 13:53:05;;;;;;;13.30;2.97;;;8.90;99.90;;;;;;4938840;29;20051;-84